createdAt,value
2023-03-13T00:00:17.901Z,960.30
2023-03-13T00:01:07.909Z,960.29
2023-03-13T00:01:57.894Z,960.30
2023-03-13T00:02:47.849Z,960.28
2023-03-13T00:03:37.845Z,960.31
2023-03-13T00:04:27.834Z,960.34
2023-03-13T00:05:18.082Z,960.33
2023-03-13T00:06:07.816Z,960.38
2023-03-13T00:06:57.806Z,960.44
2023-03-13T00:07:47.806Z,960.38
2023-03-13T00:08:37.866Z,960.42
2023-03-13T00:09:27.766Z,960.44
2023-03-13T00:10:17.806Z,960.33
2023-03-13T00:11:07.766Z,960.39
2023-03-13T00:11:57.927Z,960.40
2023-03-13T00:12:47.764Z,960.42
2023-03-13T00:13:37.727Z,960.36
2023-03-13T00:14:27.794Z,960.46
2023-03-13T00:15:17.721Z,960.41
2023-03-13T00:16:07.739Z,960.38
2023-03-13T00:16:57.728Z,960.40
2023-03-13T00:17:47.734Z,960.44
2023-03-13T00:18:37.809Z,960.47
2023-03-13T00:19:27.783Z,960.44
2023-03-13T00:20:17.674Z,960.48
2023-03-13T00:21:07.645Z,960.47
2023-03-13T00:21:57.623Z,960.54
2023-03-13T00:22:47.623Z,960.52
2023-03-13T00:23:37.887Z,960.56
2023-03-13T00:24:27.616Z,960.52
2023-03-13T00:25:17.616Z,960.57
2023-03-13T00:26:07.621Z,960.47
2023-03-13T00:26:57.581Z,960.47
2023-03-13T00:27:47.584Z,960.44
2023-03-13T00:28:37.558Z,960.48
2023-03-13T00:29:27.553Z,960.44
2023-03-13T00:30:17.555Z,960.39
2023-03-13T00:31:07.626Z,960.35
2023-03-13T00:31:57.663Z,960.44
2023-03-13T00:32:47.720Z,960.34
2023-03-13T00:33:37.521Z,960.32
2023-03-13T00:34:27.513Z,960.28
2023-03-13T00:35:17.527Z,960.36
2023-03-13T00:36:08.204Z,960.39
2023-03-13T00:36:57.461Z,960.38
2023-03-13T00:37:47.450Z,960.36
2023-03-13T00:38:37.852Z,960.36
2023-03-13T00:39:27.456Z,960.39
2023-03-13T00:40:17.431Z,960.39
2023-03-13T00:41:07.419Z,960.39
2023-03-13T00:41:57.418Z,960.37
2023-03-13T00:42:47.416Z,960.33
2023-03-13T00:43:37.396Z,960.34
2023-03-13T00:44:27.380Z,960.30
2023-03-13T00:45:17.384Z,960.32
2023-03-13T00:46:07.456Z,960.37
2023-03-13T00:46:57.404Z,960.34
2023-03-13T00:47:47.369Z,960.35
2023-03-13T00:48:37.342Z,960.41
2023-03-13T00:49:27.336Z,960.46
2023-03-13T00:50:17.338Z,960.40
2023-03-13T00:51:07.331Z,960.43
2023-03-13T00:51:57.305Z,960.43
2023-03-13T00:52:47.296Z,960.40
2023-03-13T00:53:37.293Z,960.46
2023-03-13T00:54:27.275Z,960.40
2023-03-13T00:55:17.276Z,960.44
2023-03-13T00:56:07.257Z,960.27
2023-03-13T00:56:57.237Z,960.21
2023-03-13T00:57:47.267Z,960.25
2023-03-13T00:58:37.223Z,960.32
2023-03-13T00:59:27.221Z,960.30
2023-03-13T01:00:17.220Z,960.28
2023-03-13T01:01:07.220Z,960.26
2023-03-13T01:01:57.222Z,960.22
2023-03-13T01:02:47.388Z,960.20
2023-03-13T01:03:37.283Z,960.27
2023-03-13T01:04:27.172Z,960.20
2023-03-13T01:05:17.168Z,960.22
2023-03-13T01:06:07.162Z,960.26
2023-03-13T01:06:57.254Z,960.20
2023-03-13T01:07:47.138Z,960.18
2023-03-13T01:08:37.120Z,960.17
2023-03-13T01:09:27.120Z,960.18
2023-03-13T01:10:17.158Z,960.20
2023-03-13T01:11:07.087Z,960.15
2023-03-13T01:11:57.078Z,960.09
2023-03-13T01:12:47.080Z,960.08
2023-03-13T01:13:37.082Z,960.16
2023-03-13T01:14:27.068Z,960.12
2023-03-13T01:15:17.069Z,960.10
2023-03-13T01:16:07.129Z,960.10
2023-03-13T01:16:57.041Z,960.18
2023-03-13T01:17:47.031Z,960.15
2023-03-13T01:18:37.002Z,960.17
2023-03-13T01:19:27.006Z,960.20
2023-03-13T01:20:17.002Z,960.07
2023-03-13T01:21:06.999Z,960.16
2023-03-13T01:21:56.981Z,960.13
2023-03-13T01:22:46.961Z,960.11
2023-03-13T01:23:36.961Z,960.10
2023-03-13T01:24:26.961Z,960.10
2023-03-13T01:25:16.932Z,959.99
2023-03-13T01:26:06.957Z,959.99
2023-03-13T01:26:56.923Z,959.98
2023-03-13T01:27:46.910Z,960.03
2023-03-13T01:28:36.920Z,960.07
2023-03-13T01:29:26.926Z,960.08
2023-03-13T01:30:16.881Z,959.87
2023-03-13T01:31:06.950Z,959.89
2023-03-13T01:31:56.893Z,959.90
2023-03-13T01:32:46.943Z,959.92
2023-03-13T01:33:36.857Z,960.02
2023-03-13T01:34:26.832Z,959.97
2023-03-13T01:35:16.857Z,959.93
2023-03-13T01:36:06.825Z,959.98
2023-03-13T01:36:56.811Z,959.94
2023-03-13T01:37:46.809Z,959.97
2023-03-13T01:38:36.802Z,959.89
2023-03-13T01:39:26.782Z,959.94
2023-03-13T01:40:16.788Z,959.91
2023-03-13T01:41:06.776Z,959.93
2023-03-13T01:41:56.757Z,959.87
2023-03-13T01:42:46.772Z,959.95
2023-03-13T01:43:36.748Z,959.88
2023-03-13T01:44:26.748Z,959.84
2023-03-13T01:45:16.715Z,959.90
2023-03-13T01:46:06.798Z,959.88
2023-03-13T01:46:56.705Z,959.86
2023-03-13T01:47:48.169Z,959.80
2023-03-13T01:48:36.780Z,959.81
2023-03-13T01:49:26.702Z,959.85
2023-03-13T01:50:16.666Z,959.84
2023-03-13T01:51:06.665Z,959.91
2023-03-13T01:51:56.640Z,959.83
2023-03-13T01:52:46.629Z,959.77
2023-03-13T01:53:36.627Z,959.74
2023-03-13T01:54:26.645Z,959.76
2023-03-13T01:55:16.600Z,959.78
2023-03-13T01:56:06.599Z,959.77
2023-03-13T01:56:56.601Z,959.76
2023-03-13T01:57:46.576Z,959.74
2023-03-13T01:58:36.569Z,959.70
2023-03-13T01:59:26.565Z,959.68
2023-03-13T02:00:16.561Z,959.63
2023-03-13T02:01:06.542Z,959.62
2023-03-13T02:01:56.589Z,959.62
2023-03-13T02:02:46.598Z,959.60
2023-03-13T02:03:36.509Z,959.49
2023-03-13T02:04:26.499Z,959.53
2023-03-13T02:05:16.503Z,959.52
2023-03-13T02:06:06.513Z,959.49
2023-03-13T02:06:56.470Z,959.47
2023-03-13T02:07:46.479Z,959.47
2023-03-13T02:08:36.475Z,959.48
2023-03-13T02:09:26.461Z,959.52
2023-03-13T02:10:16.450Z,959.49
2023-03-13T02:11:06.437Z,959.49
2023-03-13T02:11:56.432Z,959.52
2023-03-13T02:12:46.419Z,959.54
2023-03-13T02:13:36.394Z,959.53
2023-03-13T02:14:26.415Z,959.57
2023-03-13T02:15:16.394Z,959.56
2023-03-13T02:16:06.432Z,959.51
2023-03-13T02:16:56.364Z,959.52
2023-03-13T02:17:46.358Z,959.50
2023-03-13T02:18:36.354Z,959.50
2023-03-13T02:19:26.346Z,959.55
2023-03-13T02:20:16.347Z,959.49
2023-03-13T02:21:06.338Z,959.46
2023-03-13T02:21:56.304Z,959.45
2023-03-13T02:22:46.297Z,959.46
2023-03-13T02:23:36.305Z,959.44
2023-03-13T02:24:26.295Z,959.44
2023-03-13T02:25:16.278Z,959.45
2023-03-13T02:26:06.270Z,959.44
2023-03-13T02:26:56.262Z,959.50
2023-03-13T02:27:46.261Z,959.48
2023-03-13T02:28:36.233Z,959.48
2023-03-13T02:29:26.221Z,959.45
2023-03-13T02:30:16.251Z,959.47
2023-03-13T02:31:06.274Z,959.52
2023-03-13T02:31:56.191Z,959.51
2023-03-13T02:32:46.240Z,959.43
2023-03-13T02:33:36.197Z,959.45
2023-03-13T02:34:26.173Z,959.50
2023-03-13T02:35:16.170Z,959.52
2023-03-13T02:36:06.158Z,959.48
2023-03-13T02:36:56.149Z,959.43
2023-03-13T02:37:46.133Z,959.44
2023-03-13T02:38:36.123Z,959.45
2023-03-13T02:39:26.123Z,959.42
2023-03-13T02:40:16.100Z,959.39
2023-03-13T02:41:06.115Z,959.45
2023-03-13T02:41:56.086Z,959.40
2023-03-13T02:42:46.085Z,959.43
2023-03-13T02:43:36.079Z,959.37
2023-03-13T02:44:26.060Z,959.36
2023-03-13T02:45:16.055Z,959.35
2023-03-13T02:46:06.049Z,959.27
2023-03-13T02:46:56.107Z,959.24
2023-03-13T02:47:46.026Z,959.22
2023-03-13T02:48:36.031Z,959.07
2023-03-13T02:49:26.002Z,959.03
2023-03-13T02:50:15.996Z,959.10
2023-03-13T02:51:06.009Z,959.11
2023-03-13T02:51:55.980Z,959.03
2023-03-13T02:52:45.986Z,959.05
2023-03-13T02:53:35.955Z,959.00
2023-03-13T02:54:25.946Z,959.03
2023-03-13T02:55:15.955Z,958.98
2023-03-13T02:56:05.947Z,959.02
2023-03-13T02:56:55.940Z,958.96
2023-03-13T02:57:45.914Z,959.04
2023-03-13T02:58:44.050Z,958.96
2023-03-13T02:59:26.903Z,959.00
2023-03-13T03:00:15.912Z,958.99
2023-03-13T03:01:05.907Z,958.96
2023-03-13T03:01:55.865Z,958.90
2023-03-13T03:02:45.860Z,958.84
2023-03-13T03:03:35.903Z,958.92
2023-03-13T03:04:25.856Z,958.99
2023-03-13T03:05:15.835Z,958.95
2023-03-13T03:06:05.831Z,959.05
2023-03-13T03:06:55.825Z,959.08
2023-03-13T03:07:45.795Z,959.03
2023-03-13T03:08:35.795Z,958.93
2023-03-13T03:09:25.793Z,958.92
2023-03-13T03:10:15.783Z,958.92
2023-03-13T03:11:05.837Z,958.93
2023-03-13T03:11:55.755Z,958.94
2023-03-13T03:12:45.762Z,958.97
2023-03-13T03:13:35.756Z,958.94
2023-03-13T03:14:25.735Z,958.98
2023-03-13T03:15:15.757Z,958.89
2023-03-13T03:16:05.765Z,958.88
2023-03-13T03:16:55.720Z,958.90
2023-03-13T03:17:45.701Z,958.86
2023-03-13T03:18:35.707Z,958.88
2023-03-13T03:19:25.687Z,958.91
2023-03-13T03:20:15.672Z,958.86
2023-03-13T03:21:05.675Z,958.89
2023-03-13T03:21:55.681Z,958.87
2023-03-13T03:22:45.631Z,958.79
2023-03-13T03:23:35.641Z,958.83
2023-03-13T03:24:25.624Z,958.81
2023-03-13T03:25:15.622Z,958.78
2023-03-13T03:26:05.596Z,958.75
2023-03-13T03:26:55.590Z,958.84
2023-03-13T03:27:45.588Z,958.80
2023-03-13T03:28:35.576Z,958.83
2023-03-13T03:29:25.547Z,958.77
2023-03-13T03:30:15.545Z,958.78
2023-03-13T03:31:05.526Z,958.76
2023-03-13T03:31:55.563Z,958.79
2023-03-13T03:32:45.561Z,958.82
2023-03-13T03:33:35.520Z,958.78
2023-03-13T03:34:25.494Z,958.79
2023-03-13T03:35:15.515Z,958.87
2023-03-13T03:36:05.513Z,958.81
2023-03-13T03:36:55.480Z,958.79
2023-03-13T03:37:45.463Z,958.83
2023-03-13T03:38:35.456Z,958.86
2023-03-13T03:39:25.462Z,958.84
2023-03-13T03:40:15.442Z,958.83
2023-03-13T03:41:05.432Z,958.87
2023-03-13T03:41:55.411Z,958.82
2023-03-13T03:42:45.403Z,958.91
2023-03-13T03:43:35.420Z,958.87
2023-03-13T03:44:25.382Z,958.83
2023-03-13T03:45:15.414Z,958.75
2023-03-13T03:46:05.424Z,958.78
2023-03-13T03:46:55.448Z,958.83
2023-03-13T03:47:45.368Z,958.86
2023-03-13T03:48:35.354Z,958.85
2023-03-13T03:49:25.331Z,958.80
2023-03-13T03:50:15.320Z,958.80
2023-03-13T03:51:05.330Z,958.78
2023-03-13T03:51:55.318Z,958.85
2023-03-13T03:52:45.290Z,958.87
2023-03-13T03:53:35.312Z,958.86
2023-03-13T03:54:25.285Z,958.91
2023-03-13T03:55:15.273Z,958.89
2023-03-13T03:56:05.260Z,958.84
2023-03-13T03:56:55.271Z,958.88
2023-03-13T03:57:45.232Z,958.89
2023-03-13T03:58:35.251Z,958.90
2023-03-13T03:59:25.235Z,958.87
2023-03-13T04:00:15.213Z,958.87
2023-03-13T04:01:05.201Z,958.73
2023-03-13T04:01:55.280Z,958.74
2023-03-13T04:02:45.192Z,958.70
2023-03-13T04:03:35.268Z,958.60
2023-03-13T04:04:25.164Z,958.67
2023-03-13T04:05:15.171Z,958.64
2023-03-13T04:06:05.166Z,958.71
2023-03-13T04:06:55.160Z,958.65
2023-03-13T04:07:45.145Z,958.67
2023-03-13T04:08:35.157Z,958.70
2023-03-13T04:09:25.122Z,958.64
2023-03-13T04:10:15.105Z,958.79
2023-03-13T04:11:05.093Z,958.70
2023-03-13T04:11:55.104Z,958.69
2023-03-13T04:12:45.084Z,958.64
2023-03-13T04:13:35.100Z,958.86
2023-03-13T04:14:25.073Z,958.70
2023-03-13T04:15:15.073Z,958.67
2023-03-13T04:16:05.045Z,958.59
2023-03-13T04:16:55.104Z,958.68
2023-03-13T04:17:45.036Z,958.68
2023-03-13T04:18:35.010Z,958.64
2023-03-13T04:19:25.015Z,958.55
2023-03-13T04:20:14.998Z,958.55
2023-03-13T04:21:04.988Z,958.38
2023-03-13T04:21:55.003Z,958.34
2023-03-13T04:22:44.973Z,958.47
2023-03-13T04:23:34.968Z,958.38
2023-03-13T04:24:24.966Z,958.25
2023-03-13T04:25:14.943Z,958.54
2023-03-13T04:26:04.937Z,958.43
2023-03-13T04:26:54.933Z,958.56
2023-03-13T04:27:44.944Z,958.38
2023-03-13T04:28:34.924Z,958.57
2023-03-13T04:29:24.901Z,958.63
2023-03-13T04:30:17.557Z,958.59
2023-03-13T04:31:04.916Z,958.50
2023-03-13T04:31:54.872Z,958.47
2023-03-13T04:32:44.895Z,958.51
2023-03-13T04:33:34.875Z,958.34
2023-03-13T04:34:24.833Z,958.47
2023-03-13T04:35:14.892Z,958.32
2023-03-13T04:36:04.883Z,958.41
2023-03-13T04:36:54.822Z,958.39
2023-03-13T04:37:44.822Z,958.31
2023-03-13T04:38:34.794Z,958.34
2023-03-13T04:39:24.789Z,958.35
2023-03-13T04:40:14.790Z,958.33
2023-03-13T04:41:04.776Z,958.29
2023-03-13T04:41:54.751Z,958.42
2023-03-13T04:42:44.743Z,958.40
2023-03-13T04:43:34.750Z,958.44
2023-03-13T04:44:24.720Z,958.31
2023-03-13T04:45:14.730Z,958.57
2023-03-13T04:46:04.786Z,958.37
2023-03-13T04:46:54.701Z,958.45
2023-03-13T04:47:44.680Z,958.34
2023-03-13T04:48:34.691Z,958.46
2023-03-13T04:49:24.688Z,958.42
2023-03-13T04:50:14.704Z,958.37
2023-03-13T04:51:04.667Z,958.39
2023-03-13T04:51:54.661Z,958.49
2023-03-13T04:52:44.640Z,958.37
2023-03-13T04:53:34.627Z,958.45
2023-03-13T04:54:24.611Z,958.32
2023-03-13T04:55:14.621Z,958.36
2023-03-13T04:56:04.608Z,958.36
2023-03-13T04:56:54.610Z,958.36
2023-03-13T04:57:44.570Z,958.17
2023-03-13T04:58:34.592Z,958.12
2023-03-13T04:59:24.553Z,958.33
2023-03-13T05:00:14.556Z,958.35
2023-03-13T05:01:04.606Z,958.31
2023-03-13T05:01:54.549Z,958.34
2023-03-13T05:02:44.562Z,958.40
2023-03-13T05:03:34.534Z,958.29
2023-03-13T05:04:24.508Z,958.02
2023-03-13T05:05:14.589Z,958.35
2023-03-13T05:06:04.488Z,958.41
2023-03-13T05:06:54.487Z,958.30
2023-03-13T05:07:44.477Z,958.38
2023-03-13T05:08:34.460Z,958.33
2023-03-13T05:09:24.463Z,958.51
2023-03-13T05:10:14.450Z,958.59
2023-03-13T05:11:04.438Z,958.51
2023-03-13T05:11:55.605Z,958.49
2023-03-13T05:12:44.418Z,958.48
2023-03-13T05:13:34.432Z,958.61
2023-03-13T05:14:24.400Z,958.51
2023-03-13T05:15:14.404Z,958.32
2023-03-13T05:16:04.430Z,958.51
2023-03-13T05:16:54.372Z,958.41
2023-03-13T05:17:44.359Z,958.45
2023-03-13T05:18:34.361Z,958.45
2023-03-13T05:19:24.340Z,958.41
2023-03-13T05:20:14.360Z,958.52
2023-03-13T05:21:04.325Z,958.37
2023-03-13T05:21:54.317Z,958.44
2023-03-13T05:22:44.308Z,958.49
2023-03-13T05:23:34.289Z,958.47
2023-03-13T05:24:24.280Z,958.51
2023-03-13T05:25:14.297Z,958.51
2023-03-13T05:26:04.280Z,958.35
2023-03-13T05:26:54.258Z,958.42
2023-03-13T05:27:44.248Z,958.47
2023-03-13T05:28:34.287Z,958.28
2023-03-13T05:29:24.229Z,958.42
2023-03-13T05:30:14.522Z,958.41
2023-03-13T05:31:04.275Z,958.45
2023-03-13T05:31:54.208Z,958.34
2023-03-13T05:32:44.237Z,958.51
2023-03-13T05:33:34.197Z,958.54
2023-03-13T05:34:24.178Z,958.43
2023-03-13T05:35:14.174Z,958.68
2023-03-13T05:36:04.217Z,958.47
2023-03-13T05:36:54.146Z,958.56
2023-03-13T05:37:44.136Z,958.50
2023-03-13T05:38:34.142Z,958.56
2023-03-13T05:39:24.123Z,958.46
2023-03-13T05:40:14.106Z,958.39
2023-03-13T05:41:04.117Z,958.36
2023-03-13T05:41:54.106Z,958.41
2023-03-13T05:42:44.085Z,958.38
2023-03-13T05:43:34.103Z,958.29
2023-03-13T05:44:24.056Z,958.35
2023-03-13T05:45:14.077Z,958.35
2023-03-13T05:46:04.092Z,958.32
2023-03-13T05:46:54.167Z,958.27
2023-03-13T05:47:44.042Z,958.20
2023-03-13T05:48:34.018Z,958.19
2023-03-13T05:49:24.007Z,958.15
2023-03-13T05:50:14.006Z,958.25
2023-03-13T05:51:04.012Z,958.25
2023-03-13T05:51:53.979Z,958.14
2023-03-13T05:52:43.963Z,958.10
2023-03-13T05:53:33.984Z,958.14
2023-03-13T05:54:23.942Z,958.08
2023-03-13T05:55:13.931Z,958.02
2023-03-13T05:56:03.922Z,957.98
2023-03-13T05:56:53.922Z,958.04
2023-03-13T05:57:43.913Z,958.19
2023-03-13T05:58:33.912Z,958.05
2023-03-13T05:59:23.896Z,957.90
2023-03-13T06:00:13.918Z,958.07
2023-03-13T06:01:03.868Z,958.14
2023-03-13T06:01:53.885Z,958.16
2023-03-13T06:02:43.867Z,958.14
2023-03-13T06:03:33.991Z,958.16
2023-03-13T06:04:23.965Z,958.19
2023-03-13T06:05:13.840Z,958.26
2023-03-13T06:06:03.828Z,958.37
2023-03-13T06:06:53.816Z,958.36
2023-03-13T06:07:43.816Z,958.26
2023-03-13T06:08:33.795Z,958.43
2023-03-13T06:09:23.789Z,958.41
2023-03-13T06:10:13.792Z,958.41
2023-03-13T06:11:03.759Z,958.36
2023-03-13T06:11:53.772Z,958.40
2023-03-13T06:12:43.753Z,958.43
2023-03-13T06:13:33.742Z,958.34
2023-03-13T06:14:23.727Z,958.37
2023-03-13T06:15:13.716Z,958.39
2023-03-13T06:16:03.737Z,958.27
2023-03-13T06:16:53.711Z,958.35
2023-03-13T06:17:43.701Z,958.38
2023-03-13T06:18:33.674Z,958.35
2023-03-13T06:19:23.673Z,958.36
2023-03-13T06:20:13.676Z,958.35
2023-03-13T06:21:03.662Z,958.32
2023-03-13T06:21:53.645Z,958.43
2023-03-13T06:22:43.639Z,958.51
2023-03-13T06:23:33.634Z,958.32
2023-03-13T06:24:23.601Z,958.31
2023-03-13T06:25:13.610Z,958.25
2023-03-13T06:26:03.594Z,958.28
2023-03-13T06:26:53.572Z,958.37
2023-03-13T06:27:43.592Z,958.38
2023-03-13T06:28:33.581Z,958.41
2023-03-13T06:29:23.570Z,958.29
2023-03-13T06:30:13.543Z,958.30
2023-03-13T06:31:03.577Z,958.36
2023-03-13T06:31:53.703Z,958.35
2023-03-13T06:32:43.638Z,958.35
2023-03-13T06:33:33.588Z,958.42
2023-03-13T06:34:23.512Z,958.35
2023-03-13T06:35:13.486Z,958.42
2023-03-13T06:36:03.619Z,958.40
2023-03-13T06:36:53.483Z,958.37
2023-03-13T06:37:43.493Z,958.41
2023-03-13T06:38:33.453Z,958.35
2023-03-13T06:39:23.461Z,958.35
2023-03-13T06:40:13.448Z,958.38
2023-03-13T06:41:03.431Z,958.41
2023-03-13T06:41:53.429Z,958.36
2023-03-13T06:42:43.423Z,958.42
2023-03-13T06:43:33.392Z,958.38
2023-03-13T06:44:23.390Z,958.38
2023-03-13T06:45:13.398Z,958.35
2023-03-13T06:46:03.384Z,958.40
2023-03-13T06:46:53.434Z,958.44
2023-03-13T06:47:43.370Z,958.46
2023-03-13T06:48:33.354Z,958.42
2023-03-13T06:49:23.341Z,958.37
2023-03-13T06:50:13.348Z,958.36
2023-03-13T06:51:03.322Z,958.39
2023-03-13T06:51:53.314Z,958.25
2023-03-13T06:52:44.343Z,958.26
2023-03-13T06:53:33.290Z,958.29
2023-03-13T06:54:23.282Z,958.30
2023-03-13T06:55:13.568Z,958.34
2023-03-13T06:56:03.261Z,958.38
2023-03-13T06:56:53.259Z,958.42
2023-03-13T06:57:43.257Z,958.30
2023-03-13T06:58:33.275Z,958.28
2023-03-13T06:59:23.230Z,958.36
2023-03-13T07:00:13.238Z,958.43
2023-03-13T07:01:03.290Z,958.47
2023-03-13T07:01:53.191Z,958.46
2023-03-13T07:02:43.190Z,958.50
2023-03-13T07:03:33.201Z,958.52
2023-03-13T07:04:23.280Z,958.49
2023-03-13T07:05:13.160Z,958.52
2023-03-13T07:06:03.151Z,958.54
2023-03-13T07:06:53.151Z,958.57
2023-03-13T07:07:43.144Z,958.61
2023-03-13T07:08:33.187Z,958.55
2023-03-13T07:09:23.122Z,958.60
2023-03-13T07:10:13.102Z,958.52
2023-03-13T07:11:03.103Z,958.56
2023-03-13T07:11:53.083Z,958.54
2023-03-13T07:12:43.095Z,958.53
2023-03-13T07:13:33.088Z,958.58
2023-03-13T07:14:23.074Z,958.58
2023-03-13T07:15:13.068Z,958.63
2023-03-13T07:16:03.087Z,958.59
2023-03-13T07:16:53.172Z,958.60
2023-03-13T07:17:43.142Z,958.66
2023-03-13T07:18:33.025Z,958.64
2023-03-13T07:19:23.016Z,958.71
2023-03-13T07:20:13.125Z,958.66
2023-03-13T07:21:03.028Z,958.63
2023-03-13T07:21:52.994Z,958.64
2023-03-13T07:22:42.982Z,958.64
2023-03-13T07:23:32.963Z,958.66
2023-03-13T07:24:23.053Z,958.62
2023-03-13T07:25:12.937Z,958.62
2023-03-13T07:26:02.971Z,958.72
2023-03-13T07:27:04.888Z,958.67
2023-03-13T07:27:43.945Z,958.69
2023-03-13T07:28:34.410Z,958.70
2023-03-13T07:29:22.919Z,958.68
2023-03-13T07:30:12.901Z,958.68
2023-03-13T07:31:02.895Z,958.65
2023-03-13T07:31:52.973Z,958.69
2023-03-13T07:32:42.920Z,958.61
2023-03-13T07:33:32.856Z,958.61
2023-03-13T07:34:22.849Z,958.54
2023-03-13T07:35:12.842Z,958.52
2023-03-13T07:36:02.901Z,958.48
2023-03-13T07:36:52.812Z,958.50
2023-03-13T07:37:42.807Z,958.49
2023-03-13T07:38:32.802Z,958.51
2023-03-13T07:39:22.808Z,958.49
2023-03-13T07:40:12.791Z,958.50
2023-03-13T07:41:02.780Z,958.45
2023-03-13T07:41:52.772Z,958.42
2023-03-13T07:42:42.802Z,958.50
2023-03-13T07:43:32.778Z,958.43
2023-03-13T07:44:22.732Z,958.46
2023-03-13T07:45:13.400Z,958.35
2023-03-13T07:46:02.778Z,958.41
2023-03-13T07:46:52.720Z,958.39
2023-03-13T07:47:42.714Z,958.35
2023-03-13T07:48:32.689Z,958.39
2023-03-13T07:49:22.688Z,958.37
2023-03-13T07:50:12.814Z,958.44
2023-03-13T07:51:02.672Z,958.44
2023-03-13T07:51:52.665Z,958.42
2023-03-13T07:52:42.639Z,958.43
2023-03-13T07:53:32.747Z,958.40
2023-03-13T07:54:22.611Z,958.22
2023-03-13T07:55:12.628Z,958.13
2023-03-13T07:56:02.607Z,958.10
2023-03-13T07:56:52.595Z,958.02
2023-03-13T07:57:42.590Z,957.93
2023-03-13T07:58:32.576Z,957.99
2023-03-13T07:59:22.610Z,958.00
2023-03-13T08:00:12.554Z,958.00
2023-03-13T08:01:02.584Z,958.03
2023-03-13T08:01:52.657Z,958.04
2023-03-13T08:02:42.613Z,957.98
2023-03-13T08:03:32.561Z,957.94
2023-03-13T08:04:22.509Z,957.94
2023-03-13T08:05:12.516Z,957.87
2023-03-13T08:06:02.543Z,957.89
2023-03-13T08:06:52.517Z,957.81
2023-03-13T08:07:42.480Z,957.85
2023-03-13T08:08:32.468Z,957.86
2023-03-13T08:09:22.466Z,957.95
2023-03-13T08:10:12.438Z,957.92
2023-03-13T08:11:02.429Z,957.92
2023-03-13T08:11:52.430Z,957.93
2023-03-13T08:12:42.420Z,957.91
2023-03-13T08:13:32.417Z,957.93
2023-03-13T08:14:22.408Z,957.87
2023-03-13T08:15:12.394Z,957.88
2023-03-13T08:16:02.400Z,957.88
2023-03-13T08:16:52.432Z,957.91
2023-03-13T08:17:42.375Z,957.91
2023-03-13T08:18:32.353Z,957.94
2023-03-13T08:19:22.344Z,957.91
2023-03-13T08:20:12.338Z,957.93
2023-03-13T08:21:02.316Z,957.80
2023-03-13T08:21:52.329Z,957.68
2023-03-13T08:22:42.304Z,957.70
2023-03-13T08:23:32.284Z,957.70
2023-03-13T08:24:22.321Z,957.68
2023-03-13T08:25:12.290Z,957.70
2023-03-13T08:26:02.289Z,957.72
2023-03-13T08:26:52.261Z,957.70
2023-03-13T08:27:42.261Z,957.72
2023-03-13T08:28:32.241Z,957.67
2023-03-13T08:29:22.236Z,957.57
2023-03-13T08:30:12.240Z,957.50
2023-03-13T08:31:02.265Z,957.49
2023-03-13T08:31:52.257Z,957.56
2023-03-13T08:32:42.238Z,957.55
2023-03-13T08:33:32.194Z,957.61
2023-03-13T08:34:22.186Z,957.57
2023-03-13T08:35:12.170Z,957.58
2023-03-13T08:36:02.219Z,957.53
2023-03-13T08:36:52.161Z,957.63
2023-03-13T08:37:42.151Z,957.62
2023-03-13T08:38:32.121Z,957.57
2023-03-13T08:39:22.122Z,957.49
2023-03-13T08:40:12.124Z,957.46
2023-03-13T08:41:02.119Z,957.49
2023-03-13T08:41:52.096Z,957.46
2023-03-13T08:42:42.081Z,957.47
2023-03-13T08:43:32.073Z,957.45
2023-03-13T08:44:22.061Z,957.46
2023-03-13T08:45:12.057Z,957.42
2023-03-13T08:46:02.092Z,957.45
2023-03-13T08:46:52.052Z,957.49
2023-03-13T08:47:42.027Z,957.50
2023-03-13T08:48:32.024Z,957.60
2023-03-13T08:49:22.012Z,957.54
2023-03-13T08:50:12.030Z,957.54
2023-03-13T08:51:02.006Z,957.62
2023-03-13T08:51:51.980Z,957.59
2023-03-13T08:52:41.976Z,957.53
2023-03-13T08:53:31.960Z,957.47
2023-03-13T08:54:21.960Z,957.43
2023-03-13T08:55:11.959Z,957.47
2023-03-13T08:56:01.959Z,957.53
2023-03-13T08:56:51.926Z,957.53
2023-03-13T08:57:41.915Z,957.52
2023-03-13T08:58:31.908Z,957.44
2023-03-13T08:59:21.935Z,957.46
2023-03-13T09:00:11.882Z,957.53
2023-03-13T09:01:01.877Z,957.54
2023-03-13T09:01:51.856Z,957.53
2023-03-13T09:02:41.936Z,957.51
2023-03-13T09:03:31.916Z,957.53
2023-03-13T09:04:21.850Z,957.46
2023-03-13T09:05:11.835Z,957.47
2023-03-13T09:06:01.835Z,957.49
2023-03-13T09:06:51.805Z,957.50
2023-03-13T09:07:41.815Z,957.50
2023-03-13T09:08:31.868Z,957.52
2023-03-13T09:09:23.293Z,957.51
2023-03-13T09:10:11.783Z,957.54
2023-03-13T09:11:01.799Z,957.46
2023-03-13T09:11:51.762Z,957.48
2023-03-13T09:12:41.779Z,957.47
2023-03-13T09:13:31.739Z,957.51
2023-03-13T09:14:21.734Z,957.48
2023-03-13T09:15:11.730Z,957.48
2023-03-13T09:16:01.808Z,957.42
2023-03-13T09:16:51.733Z,957.46
2023-03-13T09:17:41.691Z,957.46
2023-03-13T09:18:31.731Z,957.44
2023-03-13T09:19:21.688Z,957.41
2023-03-13T09:20:11.674Z,957.42
2023-03-13T09:21:01.686Z,957.48
2023-03-13T09:21:51.634Z,957.39
2023-03-13T09:22:41.649Z,957.42
2023-03-13T09:23:31.664Z,957.39
2023-03-13T09:24:21.635Z,957.36
2023-03-13T09:25:11.594Z,957.40
2023-03-13T09:26:01.605Z,957.33
2023-03-13T09:27:00.592Z,957.32
2023-03-13T09:27:42.593Z,957.25
2023-03-13T09:28:31.562Z,957.24
2023-03-13T09:29:21.572Z,957.23
2023-03-13T09:30:11.581Z,957.25
2023-03-13T09:31:01.573Z,957.28
2023-03-13T09:31:51.535Z,957.31
2023-03-13T09:32:41.530Z,957.30
2023-03-13T09:33:31.511Z,957.30
2023-03-13T09:34:21.522Z,957.24
2023-03-13T09:35:11.492Z,957.19
2023-03-13T09:36:01.546Z,957.13
2023-03-13T09:36:51.467Z,957.16
2023-03-13T09:37:41.461Z,957.10
2023-03-13T09:38:31.478Z,957.04
2023-03-13T09:39:21.497Z,957.07
2023-03-13T09:40:11.440Z,956.97
2023-03-13T09:41:06.260Z,956.93
2023-03-13T09:41:52.422Z,956.95
2023-03-13T09:42:41.433Z,956.90
2023-03-13T09:43:31.407Z,956.83
2023-03-13T09:44:21.385Z,956.84
2023-03-13T09:45:11.410Z,956.83
2023-03-13T09:46:01.411Z,956.81
2023-03-13T09:46:51.423Z,956.73
2023-03-13T09:47:41.348Z,956.78
2023-03-13T09:48:31.338Z,956.76
2023-03-13T09:49:21.372Z,956.79
2023-03-13T09:50:11.317Z,956.76
2023-03-13T09:51:01.346Z,956.76
2023-03-13T09:51:51.304Z,956.78
2023-03-13T09:52:41.306Z,956.74
2023-03-13T09:53:31.290Z,956.70
2023-03-13T09:54:21.307Z,956.70
2023-03-13T09:55:11.298Z,956.76
2023-03-13T09:56:01.262Z,956.69
2023-03-13T09:56:51.256Z,956.67
2023-03-13T09:57:41.250Z,956.66
2023-03-13T09:58:31.250Z,956.69
2023-03-13T09:59:21.210Z,956.55
2023-03-13T10:00:11.240Z,956.49
2023-03-13T10:01:01.215Z,956.58
2023-03-13T10:01:51.213Z,956.57
2023-03-13T10:02:41.177Z,956.49
2023-03-13T10:03:31.195Z,956.43
2023-03-13T10:04:21.261Z,956.47
2023-03-13T10:05:11.166Z,956.39
2023-03-13T10:06:01.146Z,956.39
2023-03-13T10:06:51.139Z,956.42
2023-03-13T10:07:41.127Z,956.44
2023-03-13T10:08:31.122Z,956.54
2023-03-13T10:09:21.130Z,956.43
2023-03-13T10:10:11.109Z,956.48
2023-03-13T10:11:01.076Z,956.49
2023-03-13T10:11:51.086Z,956.49
2023-03-13T10:12:41.076Z,956.43
2023-03-13T10:13:31.066Z,956.37
2023-03-13T10:14:21.087Z,956.44
2023-03-13T10:15:11.059Z,956.38
2023-03-13T10:16:01.111Z,956.45
2023-03-13T10:16:51.060Z,956.45
2023-03-13T10:17:41.014Z,956.40
2023-03-13T10:18:31.029Z,956.40
2023-03-13T10:19:21.005Z,956.38
2023-03-13T10:20:10.995Z,956.42
2023-03-13T10:21:00.994Z,956.40
2023-03-13T10:21:50.990Z,956.26
2023-03-13T10:22:40.955Z,956.23
2023-03-13T10:23:30.965Z,956.31